sensor_id;sensor_type;location;lat;lon;timestamp;temperature;humidity
563;DHT22;266;49.514;8.294;2023-02-15T00:01:58;2.30;99.90
563;DHT22;266;49.514;8.294;2023-02-15T00:04:27;2.30;99.90
563;DHT22;266;49.514;8.294;2023-02-15T00:07:14;2.30;99.90
563;DHT22;266;49.514;8.294;2023-02-15T00:09:45;2.20;99.90
563;DHT22;266;49.514;8.294;2023-02-15T00:12:13;2.20;99.90
563;DHT22;266;49.514;8.294;2023-02-15T00:14:41;2.30;99.90
563;DHT22;266;49.514;8.294;2023-02-15T00:17:11;2.30;99.90
563;DHT22;266;49.514;8.294;2023-02-15T00:19:38;2.30;99.90
563;DHT22;266;49.514;8.294;2023-02-15T00:22:07;2.30;99.90
563;DHT22;266;49.514;8.294;2023-02-15T00:24:35;2.30;99.90
563;DHT22;266;49.514;8.294;2023-02-15T00:27:03;2.20;99.90
563;DHT22;266;49.514;8.294;2023-02-15T00:29:31;2.20;99.90
563;DHT22;266;49.514;8.294;2023-02-15T00:31:59;2.20;99.90
563;DHT22;266;49.514;8.294;2023-02-15T00:34:28;2.20;99.90
563;DHT22;266;49.514;8.294;2023-02-15T00:36:56;2.20;99.90
563;DHT22;266;49.514;8.294;2023-02-15T00:39:24;2.20;99.90
563;DHT22;266;49.514;8.294;2023-02-15T00:41:53;2.30;99.90
563;DHT22;266;49.514;8.294;2023-02-15T00:44:21;2.30;99.90
563;DHT22;266;49.514;8.294;2023-02-15T00:46:49;2.30;99.90
563;DHT22;266;49.514;8.294;2023-02-15T00:49:17;2.30;99.90
563;DHT22;266;49.514;8.294;2023-02-15T00:51:46;2.20;99.90
563;DHT22;266;49.514;8.294;2023-02-15T00:54:15;2.20;99.90
563;DHT22;266;49.514;8.294;2023-02-15T00:56:43;2.30;99.90
563;DHT22;266;49.514;8.294;2023-02-15T00:59:11;2.30;99.90
563;DHT22;266;49.514;8.294;2023-02-15T01:01:39;2.20;99.90
563;DHT22;266;49.514;8.294;2023-02-15T01:04:07;2.20;99.90
563;DHT22;266;49.514;8.294;2023-02-15T01:06:35;2.20;99.90
563;DHT22;266;49.514;8.294;2023-02-15T01:09:04;2.20;99.90
563;DHT22;266;49.514;8.294;2023-02-15T01:11:32;2.20;99.90
563;DHT22;266;49.514;8.294;2023-02-15T01:14:00;2.20;99.90
563;DHT22;266;49.514;8.294;2023-02-15T01:16:29;2.30;99.90
563;DHT22;266;49.514;8.294;2023-02-15T01:18:57;2.30;99.90
563;DHT22;266;49.514;8.294;2023-02-15T01:21:26;2.30;99.90
563;DHT22;266;49.514;8.294;2023-02-15T01:23:54;2.30;99.90
563;DHT22;266;49.514;8.294;2023-02-15T01:26:23;2.30;99.90
563;DHT22;266;49.514;8.294;2023-02-15T01:28:51;2.30;99.90
563;DHT22;266;49.514;8.294;2023-02-15T01:31:20;2.30;99.90
563;DHT22;266;49.514;8.294;2023-02-15T01:33:48;2.30;99.90
563;DHT22;266;49.514;8.294;2023-02-15T01:36:17;2.30;99.90
563;DHT22;266;49.514;8.294;2023-02-15T01:38:45;2.30;99.90
563;DHT22;266;49.514;8.294;2023-02-15T01:41:13;2.30;99.90
563;DHT22;266;49.514;8.294;2023-02-15T01:43:57;2.30;99.90
563;DHT22;266;49.514;8.294;2023-02-15T01:46:28;2.30;99.90
563;DHT22;266;49.514;8.294;2023-02-15T01:49:02;2.40;99.90
563;DHT22;266;49.514;8.294;2023-02-15T01:51:33;2.40;99.90
563;DHT22;266;49.514;8.294;2023-02-15T01:54:06;2.40;99.90
563;DHT22;266;49.514;8.294;2023-02-15T01:56:36;2.40;99.90
563;DHT22;266;49.514;8.294;2023-02-15T01:59:22;2.40;99.90
563;DHT22;266;49.514;8.294;2023-02-15T02:01:52;2.50;99.90
563;DHT22;266;49.514;8.294;2023-02-15T02:04:28;2.50;99.90
563;DHT22;266;49.514;8.294;2023-02-15T02:06:58;2.50;99.90
563;DHT22;266;49.514;8.294;2023-02-15T02:09:27;2.40;99.90
563;DHT22;266;49.514;8.294;2023-02-15T02:11:55;2.50;99.90
563;DHT22;266;49.514;8.294;2023-02-15T02:14:25;2.40;99.90
563;DHT22;266;49.514;8.294;2023-02-15T02:16:57;2.40;99.90
563;DHT22;266;49.514;8.294;2023-02-15T02:19:52;2.30;99.90
563;DHT22;266;49.514;8.294;2023-02-15T02:22:44;2.20;99.90
563;DHT22;266;49.514;8.294;2023-02-15T02:28:42;2.30;99.90
563;DHT22;266;49.514;8.294;2023-02-15T02:31:34;2.30;99.90
563;DHT22;266;49.514;8.294;2023-02-15T02:34:14;2.30;99.90
563;DHT22;266;49.514;8.294;2023-02-15T02:36:49;2.20;99.90
563;DHT22;266;49.514;8.294;2023-02-15T02:39:26;2.10;99.90
563;DHT22;266;49.514;8.294;2023-02-15T02:42:02;2.00;99.90
563;DHT22;266;49.514;8.294;2023-02-15T02:44:39;2.00;99.90
563;DHT22;266;49.514;8.294;2023-02-15T02:47:13;2.10;99.90
563;DHT22;266;49.514;8.294;2023-02-15T02:49:45;2.10;99.90
563;DHT22;266;49.514;8.294;2023-02-15T02:52:35;2.10;99.90
563;DHT22;266;49.514;8.294;2023-02-15T02:55:07;2.10;99.90
563;DHT22;266;49.514;8.294;2023-02-15T02:57:39;2.10;99.90
563;DHT22;266;49.514;8.294;2023-02-15T03:00:09;2.00;99.90
563;DHT22;266;49.514;8.294;2023-02-15T03:02:40;2.00;99.90
563;DHT22;266;49.514;8.294;2023-02-15T03:05:15;2.00;99.90
563;DHT22;266;49.514;8.294;2023-02-15T03:07:46;2.00;99.90
563;DHT22;266;49.514;8.294;2023-02-15T03:10:18;2.00;99.90
563;DHT22;266;49.514;8.294;2023-02-15T03:12:46;1.90;99.90
563;DHT22;266;49.514;8.294;2023-02-15T03:15:17;1.90;99.90
563;DHT22;266;49.514;8.294;2023-02-15T03:17:51;1.90;99.90
563;DHT22;266;49.514;8.294;2023-02-15T03:20:27;2.00;99.90
563;DHT22;266;49.514;8.294;2023-02-15T03:22:59;2.00;99.90
563;DHT22;266;49.514;8.294;2023-02-15T03:25:33;2.00;99.90
563;DHT22;266;49.514;8.294;2023-02-15T03:28:04;2.00;99.90
563;DHT22;266;49.514;8.294;2023-02-15T03:30:34;2.10;99.90
563;DHT22;266;49.514;8.294;2023-02-15T03:33:04;2.10;99.90
563;DHT22;266;49.514;8.294;2023-02-15T03:35:46;2.10;99.90
563;DHT22;266;49.514;8.294;2023-02-15T03:38:20;2.20;99.90
563;DHT22;266;49.514;8.294;2023-02-15T03:40:50;2.10;99.90
563;DHT22;266;49.514;8.294;2023-02-15T03:43:44;2.10;99.90
563;DHT22;266;49.514;8.294;2023-02-15T03:46:19;2.20;99.90
563;DHT22;266;49.514;8.294;2023-02-15T03:48:53;2.20;99.90
563;DHT22;266;49.514;8.294;2023-02-15T03:51:26;2.20;99.90
563;DHT22;266;49.514;8.294;2023-02-15T03:54:04;2.20;99.90
563;DHT22;266;49.514;8.294;2023-02-15T03:56:34;2.10;99.90
563;DHT22;266;49.514;8.294;2023-02-15T03:59:03;2.00;99.90
563;DHT22;266;49.514;8.294;2023-02-15T04:01:59;2.00;99.90
563;DHT22;266;49.514;8.294;2023-02-15T04:04:33;1.90;99.90
563;DHT22;266;49.514;8.294;2023-02-15T04:07:05;1.80;99.90
563;DHT22;266;49.514;8.294;2023-02-15T04:09:33;1.80;99.90
563;DHT22;266;49.514;8.294;2023-02-15T04:12:19;1.80;99.90
563;DHT22;266;49.514;8.294;2023-02-15T04:14:47;1.70;99.90
563;DHT22;266;49.514;8.294;2023-02-15T04:17:32;1.70;99.90
563;DHT22;266;49.514;8.294;2023-02-15T04:20:00;1.70;99.90
563;DHT22;266;49.514;8.294;2023-02-15T04:22:49;1.70;99.90
563;DHT22;266;49.514;8.294;2023-02-15T04:25:34;1.70;99.90
563;DHT22;266;49.514;8.294;2023-02-15T04:28:03;1.60;99.90
563;DHT22;266;49.514;8.294;2023-02-15T04:30:31;1.60;99.90
563;DHT22;266;49.514;8.294;2023-02-15T04:32:59;1.50;99.90
563;DHT22;266;49.514;8.294;2023-02-15T04:35:26;1.50;99.90
563;DHT22;266;49.514;8.294;2023-02-15T04:37:56;1.50;99.90
563;DHT22;266;49.514;8.294;2023-02-15T04:40:24;1.60;99.90
563;DHT22;266;49.514;8.294;2023-02-15T04:42:52;1.60;99.90
563;DHT22;266;49.514;8.294;2023-02-15T04:45:20;1.70;99.90
563;DHT22;266;49.514;8.294;2023-02-15T04:47:48;1.70;99.90
563;DHT22;266;49.514;8.294;2023-02-15T04:50:16;1.70;99.90
563;DHT22;266;49.514;8.294;2023-02-15T04:52:44;1.70;99.90
563;DHT22;266;49.514;8.294;2023-02-15T04:55:13;1.70;99.90
563;DHT22;266;49.514;8.294;2023-02-15T04:57:41;1.70;99.90
563;DHT22;266;49.514;8.294;2023-02-15T05:00:10;1.70;99.90
563;DHT22;266;49.514;8.294;2023-02-15T05:02:38;1.70;99.90
563;DHT22;266;49.514;8.294;2023-02-15T05:05:06;1.80;99.90
563;DHT22;266;49.514;8.294;2023-02-15T05:07:36;1.80;99.90
563;DHT22;266;49.514;8.294;2023-02-15T05:10:04;1.80;99.90
563;DHT22;266;49.514;8.294;2023-02-15T05:12:34;1.80;99.90
563;DHT22;266;49.514;8.294;2023-02-15T05:15:02;1.80;99.90
563;DHT22;266;49.514;8.294;2023-02-15T05:17:30;1.80;99.90
563;DHT22;266;49.514;8.294;2023-02-15T05:19:58;1.90;99.90
563;DHT22;266;49.514;8.294;2023-02-15T05:22:26;1.90;99.90
563;DHT22;266;49.514;8.294;2023-02-15T05:24:54;1.90;99.90
563;DHT22;266;49.514;8.294;2023-02-15T05:27:43;1.80;99.90
563;DHT22;266;49.514;8.294;2023-02-15T05:30:36;1.90;99.90
563;DHT22;266;49.514;8.294;2023-02-15T05:33:06;1.90;99.90
563;DHT22;266;49.514;8.294;2023-02-15T05:35:35;1.90;99.90
563;DHT22;266;49.514;8.294;2023-02-15T05:38:03;1.80;99.90
563;DHT22;266;49.514;8.294;2023-02-15T05:40:30;1.80;99.90
563;DHT22;266;49.514;8.294;2023-02-15T05:43:00;1.70;99.90
563;DHT22;266;49.514;8.294;2023-02-15T05:45:28;1.80;99.90
563;DHT22;266;49.514;8.294;2023-02-15T05:47:56;1.80;99.90
563;DHT22;266;49.514;8.294;2023-02-15T05:50:25;1.70;99.90
563;DHT22;266;49.514;8.294;2023-02-15T05:52:53;1.70;99.90
563;DHT22;266;49.514;8.294;2023-02-15T05:55:21;1.70;99.90
563;DHT22;266;49.514;8.294;2023-02-15T05:57:48;1.70;99.90
563;DHT22;266;49.514;8.294;2023-02-15T06:00:18;1.70;99.90
563;DHT22;266;49.514;8.294;2023-02-15T06:02:46;1.70;99.90
563;DHT22;266;49.514;8.294;2023-02-15T06:05:14;1.70;99.90
563;DHT22;266;49.514;8.294;2023-02-15T06:07:43;1.80;99.90
563;DHT22;266;49.514;8.294;2023-02-15T06:10:11;1.80;99.90
563;DHT22;266;49.514;8.294;2023-02-15T06:12:39;1.80;99.90
563;DHT22;266;49.514;8.294;2023-02-15T06:15:08;1.80;99.90
563;DHT22;266;49.514;8.294;2023-02-15T06:17:37;1.80;99.90
563;DHT22;266;49.514;8.294;2023-02-15T06:20:06;1.70;99.90
563;DHT22;266;49.514;8.294;2023-02-15T06:22:35;1.70;99.90
563;DHT22;266;49.514;8.294;2023-02-15T06:25:03;1.70;99.90
563;DHT22;266;49.514;8.294;2023-02-15T06:27:31;1.70;99.90
563;DHT22;266;49.514;8.294;2023-02-15T06:29:59;1.70;99.90
563;DHT22;266;49.514;8.294;2023-02-15T06:32:27;1.70;99.90
563;DHT22;266;49.514;8.294;2023-02-15T06:34:56;1.70;99.90
563;DHT22;266;49.514;8.294;2023-02-15T06:37:24;1.70;99.90
563;DHT22;266;49.514;8.294;2023-02-15T06:39:52;1.70;99.90
563;DHT22;266;49.514;8.294;2023-02-15T06:42:21;1.80;99.90
563;DHT22;266;49.514;8.294;2023-02-15T06:44:49;1.80;99.90
563;DHT22;266;49.514;8.294;2023-02-15T06:47:17;1.80;99.90
563;DHT22;266;49.514;8.294;2023-02-15T06:49:45;1.80;99.90
563;DHT22;266;49.514;8.294;2023-02-15T06:52:14;1.80;99.90
563;DHT22;266;49.514;8.294;2023-02-15T06:54:42;1.80;99.90
563;DHT22;266;49.514;8.294;2023-02-15T06:57:10;1.80;99.90
563;DHT22;266;49.514;8.294;2023-02-15T06:59:38;1.80;99.90
563;DHT22;266;49.514;8.294;2023-02-15T07:02:07;1.70;99.90
563;DHT22;266;49.514;8.294;2023-02-15T07:04:35;1.60;99.90
563;DHT22;266;49.514;8.294;2023-02-15T07:07:04;1.60;99.90
563;DHT22;266;49.514;8.294;2023-02-15T07:09:33;1.60;99.90
563;DHT22;266;49.514;8.294;2023-02-15T07:12:01;1.60;99.90
563;DHT22;266;49.514;8.294;2023-02-15T07:14:47;1.60;99.90
563;DHT22;266;49.514;8.294;2023-02-15T07:17:15;1.60;99.90
563;DHT22;266;49.514;8.294;2023-02-15T07:20:02;1.60;99.90
563;DHT22;266;49.514;8.294;2023-02-15T07:22:30;1.60;99.90
563;DHT22;266;49.514;8.294;2023-02-15T07:24:59;1.60;99.90
563;DHT22;266;49.514;8.294;2023-02-15T07:27:27;1.60;99.90
563;DHT22;266;49.514;8.294;2023-02-15T07:29:55;1.60;99.90
563;DHT22;266;49.514;8.294;2023-02-15T07:32:23;1.60;99.90
563;DHT22;266;49.514;8.294;2023-02-15T07:34:51;1.50;99.90
563;DHT22;266;49.514;8.294;2023-02-15T07:37:19;1.50;99.90
563;DHT22;266;49.514;8.294;2023-02-15T07:39:47;1.50;99.90
563;DHT22;266;49.514;8.294;2023-02-15T07:42:16;1.50;99.90
563;DHT22;266;49.514;8.294;2023-02-15T07:44:46;1.50;99.90
563;DHT22;266;49.514;8.294;2023-02-15T07:47:14;1.60;99.90
563;DHT22;266;49.514;8.294;2023-02-15T07:49:42;1.60;99.90
563;DHT22;266;49.514;8.294;2023-02-15T07:52:10;1.60;99.90
563;DHT22;266;49.514;8.294;2023-02-15T07:54:38;1.60;99.90
563;DHT22;266;49.514;8.294;2023-02-15T07:57:06;1.60;99.90
563;DHT22;266;49.514;8.294;2023-02-15T07:59:35;1.60;99.90
563;DHT22;266;49.514;8.294;2023-02-15T08:02:04;1.60;99.90
563;DHT22;266;49.514;8.294;2023-02-15T08:04:32;1.50;99.90
563;DHT22;266;49.514;8.294;2023-02-15T08:07:00;1.50;99.90
563;DHT22;266;49.514;8.294;2023-02-15T08:09:28;1.40;99.90
563;DHT22;266;49.514;8.294;2023-02-15T08:11:56;1.40;99.90
563;DHT22;266;49.514;8.294;2023-02-15T08:14:26;1.40;99.90
563;DHT22;266;49.514;8.294;2023-02-15T08:16:59;1.40;99.90
563;DHT22;266;49.514;8.294;2023-02-15T08:19:30;1.50;99.90
563;DHT22;266;49.514;8.294;2023-02-15T08:22:00;1.50;99.90
563;DHT22;266;49.514;8.294;2023-02-15T08:24:30;1.50;99.90
563;DHT22;266;49.514;8.294;2023-02-15T08:26:58;1.40;99.90
563;DHT22;266;49.514;8.294;2023-02-15T08:29:32;1.40;99.90
563;DHT22;266;49.514;8.294;2023-02-15T08:32:04;1.40;99.90
563;DHT22;266;49.514;8.294;2023-02-15T08:34:34;1.50;99.90
563;DHT22;266;49.514;8.294;2023-02-15T08:37:04;1.50;99.90
563;DHT22;266;49.514;8.294;2023-02-15T08:39:33;1.50;99.90
563;DHT22;266;49.514;8.294;2023-02-15T08:42:01;1.50;99.90
563;DHT22;266;49.514;8.294;2023-02-15T08:44:29;1.50;99.90
563;DHT22;266;49.514;8.294;2023-02-15T08:46:57;1.50;99.90
563;DHT22;266;49.514;8.294;2023-02-15T08:49:31;1.50;99.90
563;DHT22;266;49.514;8.294;2023-02-15T08:51:59;1.50;99.90
563;DHT22;266;49.514;8.294;2023-02-15T08:54:27;1.50;99.90
563;DHT22;266;49.514;8.294;2023-02-15T08:56:55;1.60;99.90
563;DHT22;266;49.514;8.294;2023-02-15T08:59:23;1.60;99.90
563;DHT22;266;49.514;8.294;2023-02-15T09:01:54;1.60;99.90
563;DHT22;266;49.514;8.294;2023-02-15T09:04:22;1.70;99.90
563;DHT22;266;49.514;8.294;2023-02-15T09:06:51;1.70;99.90
563;DHT22;266;49.514;8.294;2023-02-15T09:09:20;1.70;99.90
563;DHT22;266;49.514;8.294;2023-02-15T09:11:50;1.70;99.90
563;DHT22;266;49.514;8.294;2023-02-15T09:14:25;1.70;99.90
563;DHT22;266;49.514;8.294;2023-02-15T09:16:53;1.70;99.90
563;DHT22;266;49.514;8.294;2023-02-15T09:19:22;1.70;99.90
563;DHT22;266;49.514;8.294;2023-02-15T09:21:52;1.60;99.90
563;DHT22;266;49.514;8.294;2023-02-15T09:24:21;1.50;99.90
563;DHT22;266;49.514;8.294;2023-02-15T09:26:49;1.50;99.90
563;DHT22;266;49.514;8.294;2023-02-15T09:29:18;1.40;99.90
563;DHT22;266;49.514;8.294;2023-02-15T09:31:47;1.40;99.90
563;DHT22;266;49.514;8.294;2023-02-15T09:34:18;1.50;99.90
563;DHT22;266;49.514;8.294;2023-02-15T09:36:47;1.50;99.90
563;DHT22;266;49.514;8.294;2023-02-15T09:39:18;1.50;99.90
563;DHT22;266;49.514;8.294;2023-02-15T09:45:20;1.50;99.90
563;DHT22;266;49.514;8.294;2023-02-15T09:50:56;1.60;99.90
563;DHT22;266;49.514;8.294;2023-02-15T09:53:41;1.60;99.90
563;DHT22;266;49.514;8.294;2023-02-15T09:56:22;1.60;99.90
563;DHT22;266;49.514;8.294;2023-02-15T09:58:56;1.60;99.90
563;DHT22;266;49.514;8.294;2023-02-15T10:01:34;1.60;99.90
563;DHT22;266;49.514;8.294;2023-02-15T10:04:18;1.60;99.90
563;DHT22;266;49.514;8.294;2023-02-15T10:06:58;1.60;99.90
563;DHT22;266;49.514;8.294;2023-02-15T10:09:42;1.60;99.90
563;DHT22;266;49.514;8.294;2023-02-15T10:12:29;1.60;99.90
563;DHT22;266;49.514;8.294;2023-02-15T10:15:14;1.70;99.90
563;DHT22;266;49.514;8.294;2023-02-15T10:17:55;1.70;99.90
563;DHT22;266;49.514;8.294;2023-02-15T10:20:33;1.70;99.90
563;DHT22;266;49.514;8.294;2023-02-15T10:23:17;1.70;99.90
563;DHT22;266;49.514;8.294;2023-02-15T10:25:49;1.70;99.90
563;DHT22;266;49.514;8.294;2023-02-15T10:28:23;1.80;99.90
563;DHT22;266;49.514;8.294;2023-02-15T10:30:52;1.80;99.90
563;DHT22;266;49.514;8.294;2023-02-15T10:33:35;1.80;99.90
563;DHT22;266;49.514;8.294;2023-02-15T10:36:16;1.80;99.90
563;DHT22;266;49.514;8.294;2023-02-15T10:38:51;1.80;99.90
563;DHT22;266;49.514;8.294;2023-02-15T10:41:30;1.80;99.90
563;DHT22;266;49.514;8.294;2023-02-15T10:44:29;1.80;99.90
563;DHT22;266;49.514;8.294;2023-02-15T10:47:14;1.80;99.90
563;DHT22;266;49.514;8.294;2023-02-15T10:49:58;1.90;99.90
563;DHT22;266;49.514;8.294;2023-02-15T10:52:38;2.00;99.90
563;DHT22;266;49.514;8.294;2023-02-15T10:55:16;2.00;99.90
563;DHT22;266;49.514;8.294;2023-02-15T10:57:55;2.00;99.90
563;DHT22;266;49.514;8.294;2023-02-15T11:00:31;2.00;99.90
563;DHT22;266;49.514;8.294;2023-02-15T11:03:29;1.90;99.90
563;DHT22;266;49.514;8.294;2023-02-15T11:06:03;1.90;99.90
563;DHT22;266;49.514;8.294;2023-02-15T11:08:35;1.90;99.90
563;DHT22;266;49.514;8.294;2023-02-15T11:11:07;2.00;99.90
563;DHT22;266;49.514;8.294;2023-02-15T11:13:39;2.00;99.90
563;DHT22;266;49.514;8.294;2023-02-15T11:16:14;2.10;99.90
563;DHT22;266;49.514;8.294;2023-02-15T11:18:49;2.10;99.90
563;DHT22;266;49.514;8.294;2023-02-15T11:21:21;2.10;99.90
563;DHT22;266;49.514;8.294;2023-02-15T11:23:51;2.10;99.90
563;DHT22;266;49.514;8.294;2023-02-15T11:26:24;2.20;99.90
563;DHT22;266;49.514;8.294;2023-02-15T11:28:57;2.10;99.90
563;DHT22;266;49.514;8.294;2023-02-15T11:31:41;2.10;99.90
563;DHT22;266;49.514;8.294;2023-02-15T11:34:18;2.20;99.90
563;DHT22;266;49.514;8.294;2023-02-15T11:36:50;2.20;99.90
563;DHT22;266;49.514;8.294;2023-02-15T11:39:20;2.20;99.90
563;DHT22;266;49.514;8.294;2023-02-15T11:41:52;2.20;99.90
563;DHT22;266;49.514;8.294;2023-02-15T11:44:23;2.20;99.90
563;DHT22;266;49.514;8.294;2023-02-15T11:46:54;2.20;99.90
563;DHT22;266;49.514;8.294;2023-02-15T11:49:24;2.30;99.90
563;DHT22;266;49.514;8.294;2023-02-15T11:51:55;2.30;99.90
563;DHT22;266;49.514;8.294;2023-02-15T11:54:26;2.30;99.90
563;DHT22;266;49.514;8.294;2023-02-15T11:56:56;2.30;99.90
563;DHT22;266;49.514;8.294;2023-02-15T11:59:31;2.30;99.90
563;DHT22;266;49.514;8.294;2023-02-15T12:02:01;2.30;99.90
563;DHT22;266;49.514;8.294;2023-02-15T12:04:32;2.30;99.90
563;DHT22;266;49.514;8.294;2023-02-15T12:07:05;2.30;99.90
563;DHT22;266;49.514;8.294;2023-02-15T12:09:47;2.30;99.90
563;DHT22;266;49.514;8.294;2023-02-15T12:12:23;2.30;99.90
563;DHT22;266;49.514;8.294;2023-02-15T12:14:53;2.40;99.90
563;DHT22;266;49.514;8.294;2023-02-15T12:17:24;2.40;99.90
563;DHT22;266;49.514;8.294;2023-02-15T12:19:55;2.30;99.90
563;DHT22;266;49.514;8.294;2023-02-15T12:22:25;2.30;99.90
563;DHT22;266;49.514;8.294;2023-02-15T12:24:56;2.30;99.90
563;DHT22;266;49.514;8.294;2023-02-15T12:27:27;2.40;99.90
563;DHT22;266;49.514;8.294;2023-02-15T12:29:58;2.40;99.90
563;DHT22;266;49.514;8.294;2023-02-15T12:32:33;2.50;99.90
563;DHT22;266;49.514;8.294;2023-02-15T12:35:08;2.40;99.90
563;DHT22;266;49.514;8.294;2023-02-15T12:37:37;2.40;99.90
563;DHT22;266;49.514;8.294;2023-02-15T12:40:20;2.40;99.90
563;DHT22;266;49.514;8.294;2023-02-15T12:42:48;2.40;99.90
563;DHT22;266;49.514;8.294;2023-02-15T12:45:23;2.40;99.90
563;DHT22;266;49.514;8.294;2023-02-15T12:48:13;2.40;99.90
563;DHT22;266;49.514;8.294;2023-02-15T12:50:43;2.40;99.90
563;DHT22;266;49.514;8.294;2023-02-15T12:53:15;2.40;99.90
563;DHT22;266;49.514;8.294;2023-02-15T12:55:53;2.40;99.90
563;DHT22;266;49.514;8.294;2023-02-15T12:58:22;2.40;99.90
563;DHT22;266;49.514;8.294;2023-02-15T13:01:12;2.50;99.90
563;DHT22;266;49.514;8.294;2023-02-15T13:03:56;2.60;99.90
563;DHT22;266;49.514;8.294;2023-02-15T13:06:26;2.60;99.90
563;DHT22;266;49.514;8.294;2023-02-15T13:08:56;2.60;99.90
563;DHT22;266;49.514;8.294;2023-02-15T13:11:27;2.50;99.90
563;DHT22;266;49.514;8.294;2023-02-15T13:14:01;2.50;99.90
563;DHT22;266;49.514;8.294;2023-02-15T13:16:32;2.60;99.90
563;DHT22;266;49.514;8.294;2023-02-15T13:19:08;2.60;99.90
563;DHT22;266;49.514;8.294;2023-02-15T13:21:41;2.60;99.90
563;DHT22;266;49.514;8.294;2023-02-15T13:24:17;2.60;99.90
563;DHT22;266;49.514;8.294;2023-02-15T13:26:45;2.70;99.90
563;DHT22;266;49.514;8.294;2023-02-15T13:29:17;2.60;99.90
563;DHT22;266;49.514;8.294;2023-02-15T13:31:46;2.70;99.90
563;DHT22;266;49.514;8.294;2023-02-15T13:34:20;2.70;99.90
563;DHT22;266;49.514;8.294;2023-02-15T13:36:53;2.60;99.90
563;DHT22;266;49.514;8.294;2023-02-15T13:39:28;2.60;99.90
563;DHT22;266;49.514;8.294;2023-02-15T13:42:02;2.60;99.90
563;DHT22;266;49.514;8.294;2023-02-15T13:44:56;2.60;99.90
563;DHT22;266;49.514;8.294;2023-02-15T13:47:32;2.60;99.90
563;DHT22;266;49.514;8.294;2023-02-15T13:50:19;2.60;99.90
563;DHT22;266;49.514;8.294;2023-02-15T13:52:54;2.70;99.90
563;DHT22;266;49.514;8.294;2023-02-15T13:55:36;2.70;99.90
563;DHT22;266;49.514;8.294;2023-02-15T13:58:30;2.70;99.90
563;DHT22;266;49.514;8.294;2023-02-15T14:01:08;2.70;99.90
563;DHT22;266;49.514;8.294;2023-02-15T14:04:03;2.70;99.90
563;DHT22;266;49.514;8.294;2023-02-15T14:09:47;2.70;99.90
563;DHT22;266;49.514;8.294;2023-02-15T14:12:29;2.70;99.90
563;DHT22;266;49.514;8.294;2023-02-15T14:15:13;2.80;99.90
563;DHT22;266;49.514;8.294;2023-02-15T14:17:54;2.70;99.90
563;DHT22;266;49.514;8.294;2023-02-15T14:20:29;2.70;99.90
563;DHT22;266;49.514;8.294;2023-02-15T14:23:07;2.70;99.90
563;DHT22;266;49.514;8.294;2023-02-15T14:25:43;2.70;99.90
563;DHT22;266;49.514;8.294;2023-02-15T14:28:15;2.80;99.90
563;DHT22;266;49.514;8.294;2023-02-15T14:30:48;2.80;99.90
563;DHT22;266;49.514;8.294;2023-02-15T14:33:31;2.80;99.90
563;DHT22;266;49.514;8.294;2023-02-15T14:36:05;2.80;99.90
563;DHT22;266;49.514;8.294;2023-02-15T14:38:50;2.80;99.90
563;DHT22;266;49.514;8.294;2023-02-15T14:41:24;2.80;99.90
563;DHT22;266;49.514;8.294;2023-02-15T14:43:59;2.80;99.90
563;DHT22;266;49.514;8.294;2023-02-15T14:46:34;2.80;99.90
563;DHT22;266;49.514;8.294;2023-02-15T14:49:10;2.80;99.90
563;DHT22;266;49.514;8.294;2023-02-15T14:51:58;2.80;99.90
563;DHT22;266;49.514;8.294;2023-02-15T14:54:56;2.90;99.90
563;DHT22;266;49.514;8.294;2023-02-15T14:57:30;2.90;99.90
563;DHT22;266;49.514;8.294;2023-02-15T15:02:49;2.90;99.90
563;DHT22;266;49.514;8.294;2023-02-15T15:05:20;3.00;99.90
563;DHT22;266;49.514;8.294;2023-02-15T15:07:51;3.00;99.90
563;DHT22;266;49.514;8.294;2023-02-15T15:10:37;3.00;99.90
563;DHT22;266;49.514;8.294;2023-02-15T15:13:35;3.00;99.90
563;DHT22;266;49.514;8.294;2023-02-15T15:16:27;3.10;99.90
563;DHT22;266;49.514;8.294;2023-02-15T15:18:55;3.10;99.90
563;DHT22;266;49.514;8.294;2023-02-15T15:21:53;3.10;99.90
563;DHT22;266;49.514;8.294;2023-02-15T15:28:00;3.00;99.90
563;DHT22;266;49.514;8.294;2023-02-15T15:30:51;3.00;99.90
563;DHT22;266;49.514;8.294;2023-02-15T15:42:31;3.00;99.90
563;DHT22;266;49.514;8.294;2023-02-15T15:45:25;3.00;99.90
563;DHT22;266;49.514;8.294;2023-02-15T15:48:05;3.00;99.90
563;DHT22;266;49.514;8.294;2023-02-15T15:50:39;3.00;99.90
563;DHT22;266;49.514;8.294;2023-02-15T15:53:17;3.10;99.90
563;DHT22;266;49.514;8.294;2023-02-15T15:55:49;3.10;99.90
563;DHT22;266;49.514;8.294;2023-02-15T15:58:19;3.10;99.90
563;DHT22;266;49.514;8.294;2023-02-15T16:00:49;3.10;99.90
563;DHT22;266;49.514;8.294;2023-02-15T16:03:21;3.10;99.90
563;DHT22;266;49.514;8.294;2023-02-15T16:05:51;3.10;99.90
563;DHT22;266;49.514;8.294;2023-02-15T16:08:27;3.00;99.90
563;DHT22;266;49.514;8.294;2023-02-15T16:10:55;3.10;99.90
563;DHT22;266;49.514;8.294;2023-02-15T16:13:24;3.10;99.90
563;DHT22;266;49.514;8.294;2023-02-15T16:15:54;3.10;99.90
563;DHT22;266;49.514;8.294;2023-02-15T16:18:25;3.10;99.90
563;DHT22;266;49.514;8.294;2023-02-15T16:20:56;3.10;99.90
563;DHT22;266;49.514;8.294;2023-02-15T16:23:52;3.00;99.90
563;DHT22;266;49.514;8.294;2023-02-15T16:26:40;3.10;99.90
563;DHT22;266;49.514;8.294;2023-02-15T16:29:14;3.10;99.90
563;DHT22;266;49.514;8.294;2023-02-15T16:31:59;3.00;99.90
563;DHT22;266;49.514;8.294;2023-02-15T16:34:27;3.00;99.90
563;DHT22;266;49.514;8.294;2023-02-15T16:37:19;3.00;99.90
563;DHT22;266;49.514;8.294;2023-02-15T16:39:49;3.00;99.90
563;DHT22;266;49.514;8.294;2023-02-15T16:42:18;3.00;99.90
563;DHT22;266;49.514;8.294;2023-02-15T16:44:49;3.00;99.90
563;DHT22;266;49.514;8.294;2023-02-15T16:47:21;3.00;99.90
563;DHT22;266;49.514;8.294;2023-02-15T16:49:52;2.90;99.90
563;DHT22;266;49.514;8.294;2023-02-15T16:52:22;2.90;99.90
563;DHT22;266;49.514;8.294;2023-02-15T16:54:54;2.90;99.90
563;DHT22;266;49.514;8.294;2023-02-15T16:57:25;2.90;99.90
563;DHT22;266;49.514;8.294;2023-02-15T16:59:56;3.00;99.90
563;DHT22;266;49.514;8.294;2023-02-15T17:02:28;3.00;99.90
563;DHT22;266;49.514;8.294;2023-02-15T17:05:18;3.00;99.90
563;DHT22;266;49.514;8.294;2023-02-15T17:08:03;3.00;99.90
563;DHT22;266;49.514;8.294;2023-02-15T17:10:34;3.00;99.90
563;DHT22;266;49.514;8.294;2023-02-15T17:13:09;3.00;99.90
563;DHT22;266;49.514;8.294;2023-02-15T17:15:39;3.00;99.90
563;DHT22;266;49.514;8.294;2023-02-15T17:18:14;3.00;99.90
563;DHT22;266;49.514;8.294;2023-02-15T17:20:43;3.00;99.90
563;DHT22;266;49.514;8.294;2023-02-15T17:23:29;3.00;99.90
563;DHT22;266;49.514;8.294;2023-02-15T17:25:58;3.00;99.90
563;DHT22;266;49.514;8.294;2023-02-15T17:28:30;2.90;99.90
563;DHT22;266;49.514;8.294;2023-02-15T17:30:58;2.90;99.90
563;DHT22;266;49.514;8.294;2023-02-15T17:33:37;2.90;99.90
563;DHT22;266;49.514;8.294;2023-02-15T17:36:09;2.90;99.90
563;DHT22;266;49.514;8.294;2023-02-15T17:38:59;3.00;99.90
563;DHT22;266;49.514;8.294;2023-02-15T17:41:29;3.00;99.90
563;DHT22;266;49.514;8.294;2023-02-15T17:43:57;2.90;99.90
563;DHT22;266;49.514;8.294;2023-02-15T17:46:26;2.90;99.90
563;DHT22;266;49.514;8.294;2023-02-15T17:48:59;2.90;99.90
563;DHT22;266;49.514;8.294;2023-02-15T17:51:28;2.90;99.90
563;DHT22;266;49.514;8.294;2023-02-15T17:53:57;2.90;99.90
563;DHT22;266;49.514;8.294;2023-02-15T17:56:42;2.90;99.90
563;DHT22;266;49.514;8.294;2023-02-15T17:59:10;3.00;99.90
563;DHT22;266;49.514;8.294;2023-02-15T18:01:43;3.10;99.90